sensor_id;sensor_type;location;lat;lon;timestamp;temperature;humidity
71206;SHT31;58935;54.498;18.544;2022-12-18T00:03:40;-1.32;76.37
71206;SHT31;58935;54.498;18.544;2022-12-18T00:06:06;-1.34;76.32
71206;SHT31;58935;54.498;18.544;2022-12-18T00:08:31;-1.34;76.36
71206;SHT31;58935;54.498;18.544;2022-12-18T00:11:03;-1.35;76.31
71206;SHT31;58935;54.498;18.544;2022-12-18T00:13:30;-1.35;76.30
71206;SHT31;58935;54.498;18.544;2022-12-18T00:16:00;-1.35;76.19
71206;SHT31;58935;54.498;18.544;2022-12-18T00:18:28;-1.37;76.10
71206;SHT31;58935;54.498;18.544;2022-12-18T00:20:58;-1.39;76.09
71206;SHT31;58935;54.498;18.544;2022-12-18T00:23:28;-1.42;75.95
71206;SHT31;58935;54.498;18.544;2022-12-18T00:25:54;-1.46;75.94
71206;SHT31;58935;54.498;18.544;2022-12-18T00:28:19;-1.50;75.99
71206;SHT31;58935;54.498;18.544;2022-12-18T00:30:45;-1.52;75.88
71206;SHT31;58935;54.498;18.544;2022-12-18T00:33:10;-1.56;75.82
71206;SHT31;58935;54.498;18.544;2022-12-18T00:35:38;-1.61;75.87
71206;SHT31;58935;54.498;18.544;2022-12-18T00:38:03;-1.66;75.86
71206;SHT31;58935;54.498;18.544;2022-12-18T00:40:30;-1.70;75.80
71206;SHT31;58935;54.498;18.544;2022-12-18T00:42:55;-1.77;75.80
71206;SHT31;58935;54.498;18.544;2022-12-18T00:45:21;-1.81;75.81
71206;SHT31;58935;54.498;18.544;2022-12-18T00:47:48;-1.86;76.02
71206;SHT31;58935;54.498;18.544;2022-12-18T00:50:13;-1.88;76.12
71206;SHT31;58935;54.498;18.544;2022-12-18T00:52:38;-1.91;76.08
71206;SHT31;58935;54.498;18.544;2022-12-18T00:55:04;-1.95;76.11
71206;SHT31;58935;54.498;18.544;2022-12-18T00:57:29;-2.00;76.19
71206;SHT31;58935;54.498;18.544;2022-12-18T00:59:55;-2.01;76.20
71206;SHT31;58935;54.498;18.544;2022-12-18T01:02:20;-2.01;76.32
71206;SHT31;58935;54.498;18.544;2022-12-18T01:04:45;-2.01;76.58
71206;SHT31;58935;54.498;18.544;2022-12-18T01:07:10;-2.01;76.91
71206;SHT31;58935;54.498;18.544;2022-12-18T01:09:36;-2.02;77.26
71206;SHT31;58935;54.498;18.544;2022-12-18T01:12:03;-2.04;77.54
71206;SHT31;58935;54.498;18.544;2022-12-18T01:14:29;-2.05;77.68
71206;SHT31;58935;54.498;18.544;2022-12-18T01:16:54;-2.04;77.78
71206;SHT31;58935;54.498;18.544;2022-12-18T01:19:19;-2.04;77.68
71206;SHT31;58935;54.498;18.544;2022-12-18T01:21:49;-2.03;77.75
71206;SHT31;58935;54.498;18.544;2022-12-18T01:24:15;-2.04;77.99
71206;SHT31;58935;54.498;18.544;2022-12-18T01:26:40;-2.06;78.25
71206;SHT31;58935;54.498;18.544;2022-12-18T01:29:05;-2.05;78.52
71206;SHT31;58935;54.498;18.544;2022-12-18T01:31:33;-2.02;78.74
71206;SHT31;58935;54.498;18.544;2022-12-18T01:34:00;-1.98;78.85
71206;SHT31;58935;54.498;18.544;2022-12-18T01:36:28;-1.93;78.90
71206;SHT31;58935;54.498;18.544;2022-12-18T01:38:55;-1.86;79.01
71206;SHT31;58935;54.498;18.544;2022-12-18T01:41:22;-1.78;79.16
71206;SHT31;58935;54.498;18.544;2022-12-18T01:46:43;-1.70;79.49
71206;SHT31;58935;54.498;18.544;2022-12-18T01:49:11;-1.68;79.47
71206;SHT31;58935;54.498;18.544;2022-12-18T01:51:36;-1.65;79.54
71206;SHT31;58935;54.498;18.544;2022-12-18T01:54:02;-1.59;79.59
71206;SHT31;58935;54.498;18.544;2022-12-18T01:56:27;-1.56;79.67
71206;SHT31;58935;54.498;18.544;2022-12-18T01:58:58;-1.53;79.79
71206;SHT31;58935;54.498;18.544;2022-12-18T02:01:26;-1.53;79.71
71206;SHT31;58935;54.498;18.544;2022-12-18T02:03:56;-1.52;79.68
71206;SHT31;58935;54.498;18.544;2022-12-18T02:06:24;-1.52;79.85
71206;SHT31;58935;54.498;18.544;2022-12-18T02:08:58;-1.51;79.98
71206;SHT31;58935;54.498;18.544;2022-12-18T02:11:39;-1.47;79.94
71206;SHT31;58935;54.498;18.544;2022-12-18T02:14:18;-1.45;79.90
71206;SHT31;58935;54.498;18.544;2022-12-18T02:16:57;-1.43;79.92
71206;SHT31;58935;54.498;18.544;2022-12-18T02:27:45;-1.31;80.08
71206;SHT31;58935;54.498;18.544;2022-12-18T02:30:12;-1.28;80.02
71206;SHT31;58935;54.498;18.544;2022-12-18T02:32:42;-1.25;80.08
71206;SHT31;58935;54.498;18.544;2022-12-18T02:35:15;-1.18;80.19
71206;SHT31;58935;54.498;18.544;2022-12-18T02:37:45;-1.16;80.11
71206;SHT31;58935;54.498;18.544;2022-12-18T02:40:12;-1.13;80.09
71206;SHT31;58935;54.498;18.544;2022-12-18T02:42:39;-1.10;80.10
71206;SHT31;58935;54.498;18.544;2022-12-18T02:45:05;-1.06;80.07
71206;SHT31;58935;54.498;18.544;2022-12-18T02:47:32;-1.03;79.90
71206;SHT31;58935;54.498;18.544;2022-12-18T02:53:01;-1.00;79.66
71206;SHT31;58935;54.498;18.544;2022-12-18T02:55:45;-0.99;79.60
71206;SHT31;58935;54.498;18.544;2022-12-18T02:58:18;-0.98;79.44
71206;SHT31;58935;54.498;18.544;2022-12-18T03:00:52;-0.98;79.32
71206;SHT31;58935;54.498;18.544;2022-12-18T03:03:27;-1.01;79.28
71206;SHT31;58935;54.498;18.544;2022-12-18T03:05:58;-1.04;79.19
71206;SHT31;58935;54.498;18.544;2022-12-18T03:08:30;-1.05;79.07
71206;SHT31;58935;54.498;18.544;2022-12-18T03:11:01;-1.08;79.02
71206;SHT31;58935;54.498;18.544;2022-12-18T03:13:31;-1.09;79.10
71206;SHT31;58935;54.498;18.544;2022-12-18T03:16:01;-1.09;79.12
71206;SHT31;58935;54.498;18.544;2022-12-18T03:18:33;-1.07;79.14
71206;SHT31;58935;54.498;18.544;2022-12-18T03:21:04;-1.08;79.14
71206;SHT31;58935;54.498;18.544;2022-12-18T03:23:33;-1.05;79.22
71206;SHT31;58935;54.498;18.544;2022-12-18T03:26:08;-1.02;79.09
71206;SHT31;58935;54.498;18.544;2022-12-18T03:28:37;-1.02;79.07
71206;SHT31;58935;54.498;18.544;2022-12-18T03:31:07;-1.00;79.01
71206;SHT31;58935;54.498;18.544;2022-12-18T03:33:37;-0.99;78.90
71206;SHT31;58935;54.498;18.544;2022-12-18T03:36:06;-1.02;78.83
71206;SHT31;58935;54.498;18.544;2022-12-18T03:38:32;-1.02;78.98
71206;SHT31;58935;54.498;18.544;2022-12-18T03:40:59;-0.98;78.97
71206;SHT31;58935;54.498;18.544;2022-12-18T03:43:35;-0.97;78.83
71206;SHT31;58935;54.498;18.544;2022-12-18T03:46:11;-0.99;78.79
71206;SHT31;58935;54.498;18.544;2022-12-18T03:48:46;-0.99;78.71
71206;SHT31;58935;54.498;18.544;2022-12-18T03:51:20;-0.99;78.63
71206;SHT31;58935;54.498;18.544;2022-12-18T03:53:55;-0.98;78.60
71206;SHT31;58935;54.498;18.544;2022-12-18T03:56:24;-0.97;78.54
71206;SHT31;58935;54.498;18.544;2022-12-18T03:58:52;-0.95;78.59
71206;SHT31;58935;54.498;18.544;2022-12-18T04:01:19;-0.96;78.41
71206;SHT31;58935;54.498;18.544;2022-12-18T04:03:48;-0.96;78.45
71206;SHT31;58935;54.498;18.544;2022-12-18T04:06:15;-0.96;78.62
71206;SHT31;58935;54.498;18.544;2022-12-18T04:08:41;-0.93;78.52
71206;SHT31;58935;54.498;18.544;2022-12-18T04:11:07;-0.94;78.29
71206;SHT31;58935;54.498;18.544;2022-12-18T04:13:35;-0.97;78.35
71206;SHT31;58935;54.498;18.544;2022-12-18T04:16:02;-0.97;78.49
71206;SHT31;58935;54.498;18.544;2022-12-18T04:18:27;-0.94;78.40
71206;SHT31;58935;54.498;18.544;2022-12-18T04:20:53;-0.94;78.28
71206;SHT31;58935;54.498;18.544;2022-12-18T04:23:18;-0.95;78.20
71206;SHT31;58935;54.498;18.544;2022-12-18T04:25:46;-0.98;78.22
71206;SHT31;58935;54.498;18.544;2022-12-18T04:28:12;-0.98;78.20
71206;SHT31;58935;54.498;18.544;2022-12-18T04:30:37;-0.99;78.20
71206;SHT31;58935;54.498;18.544;2022-12-18T04:33:03;-1.00;78.16
71206;SHT31;58935;54.498;18.544;2022-12-18T04:35:33;-1.00;78.11
71206;SHT31;58935;54.498;18.544;2022-12-18T04:37:58;-1.00;78.12
71206;SHT31;58935;54.498;18.544;2022-12-18T04:40:24;-0.99;78.10
71206;SHT31;58935;54.498;18.544;2022-12-18T04:42:49;-0.98;78.07
71206;SHT31;58935;54.498;18.544;2022-12-18T04:45:14;-0.95;77.89
71206;SHT31;58935;54.498;18.544;2022-12-18T04:47:39;-0.94;77.70
71206;SHT31;58935;54.498;18.544;2022-12-18T04:50:05;-0.95;77.52
71206;SHT31;58935;54.498;18.544;2022-12-18T04:52:33;-0.95;77.42
71206;SHT31;58935;54.498;18.544;2022-12-18T04:54:58;-0.96;77.16
71206;SHT31;58935;54.498;18.544;2022-12-18T04:57:23;-0.96;76.88
71206;SHT31;58935;54.498;18.544;2022-12-18T04:59:49;-0.98;76.65
71206;SHT31;58935;54.498;18.544;2022-12-18T05:02:14;-0.99;76.29
71206;SHT31;58935;54.498;18.544;2022-12-18T05:04:39;-1.02;75.99
71206;SHT31;58935;54.498;18.544;2022-12-18T05:07:09;-1.03;75.75
71206;SHT31;58935;54.498;18.544;2022-12-18T05:09:34;-1.00;75.52
71206;SHT31;58935;54.498;18.544;2022-12-18T05:12:00;-1.01;75.08
71206;SHT31;58935;54.498;18.544;2022-12-18T05:14:25;-1.02;74.97
71206;SHT31;58935;54.498;18.544;2022-12-18T05:16:54;-1.04;74.73
71206;SHT31;58935;54.498;18.544;2022-12-18T05:19:19;-1.05;74.56
71206;SHT31;58935;54.498;18.544;2022-12-18T05:21:44;-1.07;74.44
71206;SHT31;58935;54.498;18.544;2022-12-18T05:24:12;-1.06;74.35
71206;SHT31;58935;54.498;18.544;2022-12-18T05:26:37;-1.05;74.23
71206;SHT31;58935;54.498;18.544;2022-12-18T05:29:05;-1.04;74.20
71206;SHT31;58935;54.498;18.544;2022-12-18T05:31:30;-1.06;74.13
71206;SHT31;58935;54.498;18.544;2022-12-18T05:33:55;-1.03;73.99
71206;SHT31;58935;54.498;18.544;2022-12-18T05:36:21;-1.03;73.84
71206;SHT31;58935;54.498;18.544;2022-12-18T05:38:46;-1.07;73.72
71206;SHT31;58935;54.498;18.544;2022-12-18T05:41:11;-1.08;73.76
71206;SHT31;58935;54.498;18.544;2022-12-18T05:43:37;-1.07;73.65
71206;SHT31;58935;54.498;18.544;2022-12-18T05:46:07;-1.08;73.63
71206;SHT31;58935;54.498;18.544;2022-12-18T05:48:36;-1.11;73.65
71206;SHT31;58935;54.498;18.544;2022-12-18T05:51:03;-1.15;73.72
71206;SHT31;58935;54.498;18.544;2022-12-18T05:53:31;-1.16;73.69
71206;SHT31;58935;54.498;18.544;2022-12-18T05:55:59;-1.18;73.67
71206;SHT31;58935;54.498;18.544;2022-12-18T05:58:26;-1.20;73.60
71206;SHT31;58935;54.498;18.544;2022-12-18T06:00:51;-1.22;73.68
71206;SHT31;58935;54.498;18.544;2022-12-18T06:03:16;-1.21;73.56
71206;SHT31;58935;54.498;18.544;2022-12-18T06:05:44;-1.20;73.60
71206;SHT31;58935;54.498;18.544;2022-12-18T06:08:10;-1.20;73.61
71206;SHT31;58935;54.498;18.544;2022-12-18T06:10:39;-1.20;73.61
71206;SHT31;58935;54.498;18.544;2022-12-18T06:13:06;-1.20;73.51
71206;SHT31;58935;54.498;18.544;2022-12-18T06:15:31;-1.22;73.47
71206;SHT31;58935;54.498;18.544;2022-12-18T06:17:57;-1.23;73.47
71206;SHT31;58935;54.498;18.544;2022-12-18T06:20:23;-1.23;73.31
71206;SHT31;58935;54.498;18.544;2022-12-18T06:22:48;-1.21;73.21
71206;SHT31;58935;54.498;18.544;2022-12-18T06:25:14;-1.22;73.21
71206;SHT31;58935;54.498;18.544;2022-12-18T06:27:39;-1.26;73.22
71206;SHT31;58935;54.498;18.544;2022-12-18T06:30:05;-1.30;73.21
71206;SHT31;58935;54.498;18.544;2022-12-18T06:32:31;-1.33;73.30
71206;SHT31;58935;54.498;18.544;2022-12-18T06:34:57;-1.35;73.32
71206;SHT31;58935;54.498;18.544;2022-12-18T06:37:22;-1.39;73.38
71206;SHT31;58935;54.498;18.544;2022-12-18T06:39:51;-1.40;73.35
71206;SHT31;58935;54.498;18.544;2022-12-18T06:42:17;-1.42;73.40
71206;SHT31;58935;54.498;18.544;2022-12-18T06:44:42;-1.43;73.33
71206;SHT31;58935;54.498;18.544;2022-12-18T06:47:07;-1.44;73.36
71206;SHT31;58935;54.498;18.544;2022-12-18T06:49:33;-1.44;73.37
71206;SHT31;58935;54.498;18.544;2022-12-18T06:51:58;-1.44;73.32
71206;SHT31;58935;54.498;18.544;2022-12-18T06:54:23;-1.45;73.40
71206;SHT31;58935;54.498;18.544;2022-12-18T06:56:48;-1.47;73.40
71206;SHT31;58935;54.498;18.544;2022-12-18T06:59:15;-1.49;73.39
71206;SHT31;58935;54.498;18.544;2022-12-18T07:01:40;-1.51;73.43
71206;SHT31;58935;54.498;18.544;2022-12-18T07:04:05;-1.55;73.49
71206;SHT31;58935;54.498;18.544;2022-12-18T07:06:31;-1.56;73.50
71206;SHT31;58935;54.498;18.544;2022-12-18T07:08:58;-1.55;73.50
71206;SHT31;58935;54.498;18.544;2022-12-18T07:11:26;-1.55;73.41
71206;SHT31;58935;54.498;18.544;2022-12-18T07:13:52;-1.57;73.40
71206;SHT31;58935;54.498;18.544;2022-12-18T07:16:20;-1.59;73.41
71206;SHT31;58935;54.498;18.544;2022-12-18T07:18:46;-1.60;73.38
71206;SHT31;58935;54.498;18.544;2022-12-18T07:21:13;-1.58;73.30
71206;SHT31;58935;54.498;18.544;2022-12-18T07:23:40;-1.58;73.29
71206;SHT31;58935;54.498;18.544;2022-12-18T07:26:06;-1.58;73.24
71206;SHT31;58935;54.498;18.544;2022-12-18T07:28:34;-1.57;73.18
71206;SHT31;58935;54.498;18.544;2022-12-18T07:31:03;-1.58;73.16
71206;SHT31;58935;54.498;18.544;2022-12-18T07:33:31;-1.60;73.19
71206;SHT31;58935;54.498;18.544;2022-12-18T07:35:59;-1.59;73.17
71206;SHT31;58935;54.498;18.544;2022-12-18T07:38:28;-1.59;73.13
71206;SHT31;58935;54.498;18.544;2022-12-18T07:40:54;-1.61;73.08
71206;SHT31;58935;54.498;18.544;2022-12-18T07:43:19;-1.61;73.11
71206;SHT31;58935;54.498;18.544;2022-12-18T07:45:44;-1.63;73.19
71206;SHT31;58935;54.498;18.544;2022-12-18T07:48:09;-1.62;73.08
71206;SHT31;58935;54.498;18.544;2022-12-18T07:50:36;-1.61;72.98
71206;SHT31;58935;54.498;18.544;2022-12-18T07:53:04;-1.56;72.83
71206;SHT31;58935;54.498;18.544;2022-12-18T07:55:34;-1.53;72.72
71206;SHT31;58935;54.498;18.544;2022-12-18T07:58:02;-1.52;72.68
71206;SHT31;58935;54.498;18.544;2022-12-18T08:00:29;-1.53;72.60
71206;SHT31;58935;54.498;18.544;2022-12-18T08:02:55;-1.52;72.55
71206;SHT31;58935;54.498;18.544;2022-12-18T08:05:20;-1.50;72.51
71206;SHT31;58935;54.498;18.544;2022-12-18T08:07:46;-1.48;72.38
71206;SHT31;58935;54.498;18.544;2022-12-18T08:10:12;-1.46;72.23
71206;SHT31;58935;54.498;18.544;2022-12-18T08:12:37;-1.44;72.14
71206;SHT31;58935;54.498;18.544;2022-12-18T08:15:03;-1.42;72.22
71206;SHT31;58935;54.498;18.544;2022-12-18T08:17:31;-1.40;72.23
71206;SHT31;58935;54.498;18.544;2022-12-18T08:19:56;-1.38;72.27
71206;SHT31;58935;54.498;18.544;2022-12-18T08:22:22;-1.35;72.14
71206;SHT31;58935;54.498;18.544;2022-12-18T08:24:47;-1.32;72.14
71206;SHT31;58935;54.498;18.544;2022-12-18T08:27:12;-1.29;72.10
71206;SHT31;58935;54.498;18.544;2022-12-18T08:29:38;-1.27;72.10
71206;SHT31;58935;54.498;18.544;2022-12-18T08:32:03;-1.27;72.08
71206;SHT31;58935;54.498;18.544;2022-12-18T08:34:28;-1.24;72.10
71206;SHT31;58935;54.498;18.544;2022-12-18T08:36:54;-1.21;72.06
71206;SHT31;58935;54.498;18.544;2022-12-18T08:39:19;-1.17;71.99
71206;SHT31;58935;54.498;18.544;2022-12-18T08:41:44;-1.15;71.94
71206;SHT31;58935;54.498;18.544;2022-12-18T08:44:29;-1.13;71.77
71206;SHT31;58935;54.498;18.544;2022-12-18T08:46:58;-1.11;71.68
71206;SHT31;58935;54.498;18.544;2022-12-18T08:49:23;-1.11;71.60
71206;SHT31;58935;54.498;18.544;2022-12-18T08:51:53;-1.12;71.58
71206;SHT31;58935;54.498;18.544;2022-12-18T08:54:19;-1.12;71.57
71206;SHT31;58935;54.498;18.544;2022-12-18T08:56:45;-1.09;71.51
71206;SHT31;58935;54.498;18.544;2022-12-18T08:59:13;-1.05;71.48
71206;SHT31;58935;54.498;18.544;2022-12-18T09:01:38;-1.02;71.30
71206;SHT31;58935;54.498;18.544;2022-12-18T09:04:03;-1.00;71.21
71206;SHT31;58935;54.498;18.544;2022-12-18T09:06:29;-1.00;71.33
71206;SHT31;58935;54.498;18.544;2022-12-18T09:08:54;-0.99;71.27
71206;SHT31;58935;54.498;18.544;2022-12-18T09:11:21;-0.97;71.24
71206;SHT31;58935;54.498;18.544;2022-12-18T09:13:49;-0.93;71.04
71206;SHT31;58935;54.498;18.544;2022-12-18T09:16:15;-0.90;70.87
71206;SHT31;58935;54.498;18.544;2022-12-18T09:18:41;-0.89;70.60
71206;SHT31;58935;54.498;18.544;2022-12-18T09:21:10;-0.87;70.49
71206;SHT31;58935;54.498;18.544;2022-12-18T09:23:38;-0.86;70.49
71206;SHT31;58935;54.498;18.544;2022-12-18T09:26:03;-0.83;70.49
71206;SHT31;58935;54.498;18.544;2022-12-18T09:28:29;-0.82;70.30
71206;SHT31;58935;54.498;18.544;2022-12-18T09:30:57;-0.83;70.08
71206;SHT31;58935;54.498;18.544;2022-12-18T09:33:28;-0.84;70.01
71206;SHT31;58935;54.498;18.544;2022-12-18T09:35:56;-0.84;69.75
71206;SHT31;58935;54.498;18.544;2022-12-18T09:38:21;-0.82;69.66
71206;SHT31;58935;54.498;18.544;2022-12-18T09:40:49;-0.79;69.61
71206;SHT31;58935;54.498;18.544;2022-12-18T09:43:18;-0.77;69.49
71206;SHT31;58935;54.498;18.544;2022-12-18T09:45:49;-0.74;69.47
71206;SHT31;58935;54.498;18.544;2022-12-18T09:48:19;-0.72;69.28
71206;SHT31;58935;54.498;18.544;2022-12-18T09:50:50;-0.69;69.15
71206;SHT31;58935;54.498;18.544;2022-12-18T09:53:19;-0.64;69.10
71206;SHT31;58935;54.498;18.544;2022-12-18T09:55:47;-0.58;68.97
71206;SHT31;58935;54.498;18.544;2022-12-18T10:00:50;-0.43;68.40
71206;SHT31;58935;54.498;18.544;2022-12-18T10:03:16;-0.40;67.63
71206;SHT31;58935;54.498;18.544;2022-12-18T10:05:46;-0.36;67.64
71206;SHT31;58935;54.498;18.544;2022-12-18T10:08:22;-0.31;67.49
71206;SHT31;58935;54.498;18.544;2022-12-18T10:13:45;-0.19;67.40
71206;SHT31;58935;54.498;18.544;2022-12-18T10:16:19;-0.14;66.96
71206;SHT31;58935;54.498;18.544;2022-12-18T10:21:30;-0.03;66.24
71206;SHT31;58935;54.498;18.544;2022-12-18T10:24:08;0.06;66.30
71206;SHT31;58935;54.498;18.544;2022-12-18T10:26:42;0.15;65.81
71206;SHT31;58935;54.498;18.544;2022-12-18T10:29:10;0.22;65.51
71206;SHT31;58935;54.498;18.544;2022-12-18T10:31:37;0.25;65.03
71206;SHT31;58935;54.498;18.544;2022-12-18T10:34:02;0.29;65.04
71206;SHT31;58935;54.498;18.544;2022-12-18T10:36:27;0.33;64.86
71206;SHT31;58935;54.498;18.544;2022-12-18T10:38:53;0.36;64.58
71206;SHT31;58935;54.498;18.544;2022-12-18T10:41:38;0.41;64.84
71206;SHT31;58935;54.498;18.544;2022-12-18T10:44:20;0.44;64.48
71206;SHT31;58935;54.498;18.544;2022-12-18T10:46:50;0.50;64.32
71206;SHT31;58935;54.498;18.544;2022-12-18T10:49:24;0.52;63.77
71206;SHT31;58935;54.498;18.544;2022-12-18T10:51:52;0.54;63.90
71206;SHT31;58935;54.498;18.544;2022-12-18T10:54:30;0.54;63.12
71206;SHT31;58935;54.498;18.544;2022-12-18T11:04:51;0.63;62.87
71206;SHT31;58935;54.498;18.544;2022-12-18T11:07:21;0.69;62.36
71206;SHT31;58935;54.498;18.544;2022-12-18T11:09:59;0.77;62.03
71206;SHT31;58935;54.498;18.544;2022-12-18T11:12:25;0.83;61.91
71206;SHT31;58935;54.498;18.544;2022-12-18T11:14:55;0.86;61.16
71206;SHT31;58935;54.498;18.544;2022-12-18T11:17:25;0.86;60.60
71206;SHT31;58935;54.498;18.544;2022-12-18T11:19:56;0.85;60.99
71206;SHT31;58935;54.498;18.544;2022-12-18T11:22:27;0.85;61.01
71206;SHT31;58935;54.498;18.544;2022-12-18T11:25:01;0.87;61.44
71206;SHT31;58935;54.498;18.544;2022-12-18T11:27:31;0.88;61.27
71206;SHT31;58935;54.498;18.544;2022-12-18T11:32:32;0.87;60.21
71206;SHT31;58935;54.498;18.544;2022-12-18T11:35:03;0.88;60.89
71206;SHT31;58935;54.498;18.544;2022-12-18T11:37:36;0.91;61.14
71206;SHT31;58935;54.498;18.544;2022-12-18T11:45:20;0.96;60.17
71206;SHT31;58935;54.498;18.544;2022-12-18T11:47:54;0.95;60.05
71206;SHT31;58935;54.498;18.544;2022-12-18T11:50:30;0.96;60.54
71206;SHT31;58935;54.498;18.544;2022-12-18T11:53:10;0.96;60.03
71206;SHT31;58935;54.498;18.544;2022-12-18T11:58:14;0.94;59.22
71206;SHT31;58935;54.498;18.544;2022-12-18T12:00:49;0.93;59.47
71206;SHT31;58935;54.498;18.544;2022-12-18T12:03:32;0.92;59.66
71206;SHT31;58935;54.498;18.544;2022-12-18T12:08:52;0.93;59.57
71206;SHT31;58935;54.498;18.544;2022-12-18T12:14:01;0.85;59.58
71206;SHT31;58935;54.498;18.544;2022-12-18T12:19:20;0.81;60.21
71206;SHT31;58935;54.498;18.544;2022-12-18T12:21:55;0.80;60.29
71206;SHT31;58935;54.498;18.544;2022-12-18T12:24:35;0.79;60.53
71206;SHT31;58935;54.498;18.544;2022-12-18T12:27:16;0.81;60.70
71206;SHT31;58935;54.498;18.544;2022-12-18T12:29:58;0.82;60.67
71206;SHT31;58935;54.498;18.544;2022-12-18T12:32:39;0.83;60.60
71206;SHT31;58935;54.498;18.544;2022-12-18T12:35:27;0.84;60.80
71206;SHT31;58935;54.498;18.544;2022-12-18T12:38:09;0.86;60.69
71206;SHT31;58935;54.498;18.544;2022-12-18T12:40:41;0.85;60.09
71206;SHT31;58935;54.498;18.544;2022-12-18T12:45:47;0.91;60.70
71206;SHT31;58935;54.498;18.544;2022-12-18T12:48:19;0.91;60.08
71206;SHT31;58935;54.498;18.544;2022-12-18T12:50:52;0.88;59.73
71206;SHT31;58935;54.498;18.544;2022-12-18T12:53:21;0.87;60.22
71206;SHT31;58935;54.498;18.544;2022-12-18T12:55:52;0.90;60.56
71206;SHT31;58935;54.498;18.544;2022-12-18T13:01:07;0.90;59.99
71206;SHT31;58935;54.498;18.544;2022-12-18T13:06:19;0.86;59.83
71206;SHT31;58935;54.498;18.544;2022-12-18T13:08:59;0.83;60.11
71206;SHT31;58935;54.498;18.544;2022-12-18T13:11:29;0.81;60.06
71206;SHT31;58935;54.498;18.544;2022-12-18T13:14:01;0.78;60.11
71206;SHT31;58935;54.498;18.544;2022-12-18T13:16:27;0.75;60.38
71206;SHT31;58935;54.498;18.544;2022-12-18T13:18:54;0.71;60.47
71206;SHT31;58935;54.498;18.544;2022-12-18T13:21:27;0.67;60.69
71206;SHT31;58935;54.498;18.544;2022-12-18T13:23:54;0.64;60.89
71206;SHT31;58935;54.498;18.544;2022-12-18T13:26:29;0.62;60.96
71206;SHT31;58935;54.498;18.544;2022-12-18T13:28:56;0.58;61.27
71206;SHT31;58935;54.498;18.544;2022-12-18T13:33:58;0.52;61.70
71206;SHT31;58935;54.498;18.544;2022-12-18T13:36:37;0.47;61.75
71206;SHT31;58935;54.498;18.544;2022-12-18T13:41:35;0.37;62.15
71206;SHT31;58935;54.498;18.544;2022-12-18T13:49:16;0.21;62.99
71206;SHT31;58935;54.498;18.544;2022-12-18T13:51:48;0.16;63.17
71206;SHT31;58935;54.498;18.544;2022-12-18T13:54:19;0.09;63.51
71206;SHT31;58935;54.498;18.544;2022-12-18T13:56:53;0.04;63.76
71206;SHT31;58935;54.498;18.544;2022-12-18T13:59:23;-0.03;63.94
71206;SHT31;58935;54.498;18.544;2022-12-18T14:01:52;-0.07;64.20
71206;SHT31;58935;54.498;18.544;2022-12-18T14:04:20;-0.14;64.45
71206;SHT31;58935;54.498;18.544;2022-12-18T14:06:52;-0.20;64.65
71206;SHT31;58935;54.498;18.544;2022-12-18T14:09:24;-0.26;64.93
71206;SHT31;58935;54.498;18.544;2022-12-18T14:11:52;-0.32;65.16
71206;SHT31;58935;54.498;18.544;2022-12-18T14:14:40;-0.39;65.43
71206;SHT31;58935;54.498;18.544;2022-12-18T14:17:09;-0.46;65.61
71206;SHT31;58935;54.498;18.544;2022-12-18T14:19:36;-0.54;65.83
71206;SHT31;58935;54.498;18.544;2022-12-18T14:22:02;-0.59;65.92
71206;SHT31;58935;54.498;18.544;2022-12-18T14:24:30;-0.63;66.03
71206;SHT31;58935;54.498;18.544;2022-12-18T14:26:56;-0.71;66.16
71206;SHT31;58935;54.498;18.544;2022-12-18T14:29:38;-0.79;66.29
71206;SHT31;58935;54.498;18.544;2022-12-18T14:32:16;-0.87;66.49
71206;SHT31;58935;54.498;18.544;2022-12-18T14:34:45;-0.93;66.62
71206;SHT31;58935;54.498;18.544;2022-12-18T14:37:16;-0.99;66.85
71206;SHT31;58935;54.498;18.544;2022-12-18T14:42:16;-1.09;67.15
71206;SHT31;58935;54.498;18.544;2022-12-18T14:44:42;-1.10;67.26
71206;SHT31;58935;54.498;18.544;2022-12-18T14:47:13;-1.12;67.21
71206;SHT31;58935;54.498;18.544;2022-12-18T14:49:40;-1.16;67.06
71206;SHT31;58935;54.498;18.544;2022-12-18T14:52:16;-1.19;67.00
71206;SHT31;58935;54.498;18.544;2022-12-18T14:54:47;-1.24;66.92
71206;SHT31;58935;54.498;18.544;2022-12-18T14:57:20;-1.30;67.03
71206;SHT31;58935;54.498;18.544;2022-12-18T14:59:48;-1.35;67.08
71206;SHT31;58935;54.498;18.544;2022-12-18T15:04:45;-1.45;67.36
71206;SHT31;58935;54.498;18.544;2022-12-18T15:10:20;-1.53;67.53
71206;SHT31;58935;54.498;18.544;2022-12-18T15:13:06;-1.56;67.61
71206;SHT31;58935;54.498;18.544;2022-12-18T15:18:18;-1.60;67.68
71206;SHT31;58935;54.498;18.544;2022-12-18T15:20:49;-1.61;67.70
71206;SHT31;58935;54.498;18.544;2022-12-18T15:25:48;-1.67;67.70
71206;SHT31;58935;54.498;18.544;2022-12-18T15:33:23;-1.78;67.83
71206;SHT31;58935;54.498;18.544;2022-12-18T15:38:21;-1.84;67.74
71206;SHT31;58935;54.498;18.544;2022-12-18T15:40:52;-1.85;67.74
71206;SHT31;58935;54.498;18.544;2022-12-18T15:43:20;-1.87;67.78
71206;SHT31;58935;54.498;18.544;2022-12-18T15:45:49;-1.88;67.77
71206;SHT31;58935;54.498;18.544;2022-12-18T15:48:18;-1.90;67.85
71206;SHT31;58935;54.498;18.544;2022-12-18T15:50:46;-1.92;67.90
71206;SHT31;58935;54.498;18.544;2022-12-18T15:53:15;-1.95;67.89
71206;SHT31;58935;54.498;18.544;2022-12-18T15:55:40;-1.97;67.83
71206;SHT31;58935;54.498;18.544;2022-12-18T15:58:11;-2.01;67.78
71206;SHT31;58935;54.498;18.544;2022-12-18T16:00:40;-2.04;67.84
71206;SHT31;58935;54.498;18.544;2022-12-18T16:03:06;-2.07;67.80
71206;SHT31;58935;54.498;18.544;2022-12-18T16:05:32;-2.08;67.63
71206;SHT31;58935;54.498;18.544;2022-12-18T16:07:57;-2.09;67.52
71206;SHT31;58935;54.498;18.544;2022-12-18T16:10:25;-2.09;67.35
71206;SHT31;58935;54.498;18.544;2022-12-18T16:12:53;-2.12;67.19
71206;SHT31;58935;54.498;18.544;2022-12-18T16:15:19;-2.16;67.17
71206;SHT31;58935;54.498;18.544;2022-12-18T16:17:44;-2.19;67.11
71206;SHT31;58935;54.498;18.544;2022-12-18T16:20:13;-2.19;67.14
71206;SHT31;58935;54.498;18.544;2022-12-18T16:22:42;-2.22;67.09
71206;SHT31;58935;54.498;18.544;2022-12-18T16:25:27;-2.24;67.04
71206;SHT31;58935;54.498;18.544;2022-12-18T16:27:55;-2.25;67.06
71206;SHT31;58935;54.498;18.544;2022-12-18T16:30:23;-2.26;67.14
71206;SHT31;58935;54.498;18.544;2022-12-18T16:32:52;-2.28;67.25
71206;SHT31;58935;54.498;18.544;2022-12-18T16:35:19;-2.31;67.32
71206;SHT31;58935;54.498;18.544;2022-12-18T16:37:44;-2.35;67.28
71206;SHT31;58935;54.498;18.544;2022-12-18T16:40:10;-2.39;67.40
71206;SHT31;58935;54.498;18.544;2022-12-18T16:42:40;-2.41;67.51
71206;SHT31;58935;54.498;18.544;2022-12-18T16:45:08;-2.45;67.60
71206;SHT31;58935;54.498;18.544;2022-12-18T16:47:36;-2.48;67.57
71206;SHT31;58935;54.498;18.544;2022-12-18T16:50:02;-2.52;67.68
71206;SHT31;58935;54.498;18.544;2022-12-18T16:52:28;-2.56;67.68
71206;SHT31;58935;54.498;18.544;2022-12-18T16:54:54;-2.58;67.78
71206;SHT31;58935;54.498;18.544;2022-12-18T16:57:20;-2.63;67.81